Time;durP1;ratioP1;P1;durP2;ratioP2;P2;SDS_P1;SDS_P2;PMS_P1;PMS_P2;Temp;Humidity;BMP_temperature;BMP_pressure;BME280_temperature;BME280_humidity;BME280_pressure;Samples;Min_cycle;Max_cycle;Signal;HPM_P1;HPM_P2
2024/02/01 00:04:50;;;;;;;0.57;0.57;;;;;;;8.63;100.00;102361.41;10452253;28;20033;-72
2024/02/01 00:09:51;;;;;;;0.70;0.70;;;;;;;8.71;100.00;102358.78;10418502;28;20025;-73
2024/02/01 00:14:51;;;;;;;0.60;0.60;;;;;;;8.75;100.00;102357.50;10418299;28;20385;-73
2024/02/01 00:19:52;;;;;;;1.40;1.40;;;;;;;8.81;100.00;102356.91;10416787;28;20060;-73
2024/02/01 00:24:53;;;;;;;2.97;2.88;;;;;;;8.85;100.00;102358.31;10417385;28;20037;-73
2024/02/01 00:29:53;;;;;;;2.00;1.73;;;;;;;8.92;100.00;102359.41;10416238;28;20050;-72
2024/02/01 00:34:54;;;;;;;0.52;0.52;;;;;;;9.00;100.00;102356.81;10415798;28;20086;-73
2024/02/01 00:39:54;;;;;;;1.02;1.02;;;;;;;9.05;100.00;102350.94;10416535;28;20144;-72
2024/02/01 00:44:55;;;;;;;0.95;0.95;;;;;;;9.05;100.00;102349.06;10416424;28;20108;-72
2024/02/01 00:49:55;;;;;;;2.03;1.95;;;;;;;9.08;100.00;102346.06;10417590;28;20430;-72
2024/02/01 00:54:55;;;;;;;1.85;1.85;;;;;;;9.17;100.00;102348.88;10416930;28;20445;-72
2024/02/01 00:59:56;;;;;;;0.40;0.40;;;;;;;9.17;100.00;102352.41;10448753;28;20071;-72
2024/02/01 01:04:56;;;;;;;0.75;0.75;;;;;;;9.18;100.00;102358.66;10415610;28;20053;-71
2024/02/01 01:09:57;;;;;;;5.72;5.25;;;;;;;9.22;100.00;102354.66;10415913;28;20065;-72
2024/02/01 01:14:57;;;;;;;2.08;1.98;;;;;;;9.20;100.00;102368.34;10415025;28;20113;-72
2024/02/01 01:20:03;;;;;;;2.55;2.35;;;;;;;9.22;100.00;102373.56;10415009;28;20037;-72
2024/02/01 01:25:04;;;;;;;4.05;3.70;;;;;;;9.21;100.00;102377.28;10414879;28;20586;-71
2024/02/01 01:30:05;;;;;;;0.70;0.70;;;;;;;9.26;100.00;102380.41;10415468;28;20032;-72
2024/02/01 01:35:05;;;;;;;1.38;1.30;;;;;;;9.17;100.00;102400.22;10415211;28;20033;-73
2024/02/01 01:40:06;;;;;;;4.85;4.30;;;;;;;9.16;100.00;102398.53;10414502;28;20037;-73
2024/02/01 01:45:07;;;;;;;2.50;2.40;;;;;;;9.15;100.00;102415.72;10413822;28;20086;-73
2024/02/01 01:50:08;;;;;;;1.30;1.27;;;;;;;9.05;100.00;102415.78;10429689;28;20374;-73
2024/02/01 01:55:08;;;;;;;2.33;1.45;;;;;;;8.97;100.00;102427.34;10413664;28;20045;-73
2024/02/01 02:00:10;;;;;;;0.75;0.75;;;;;;;9.02;100.00;102422.34;10412972;28;20075;-73
2024/02/01 02:05:10;;;;;;;4.38;2.47;;;;;;;9.11;100.00;102438.66;10413947;28;20057;-74
2024/02/01 02:10:14;;;;;;;3.08;2.83;;;;;;;9.06;100.00;102442.66;10413248;28;20065;-73
2024/02/01 02:15:16;;;;;;;0.80;0.80;;;;;;;9.08;100.00;102461.44;10414351;28;20104;-73
2024/02/01 02:20:17;;;;;;;3.03;2.85;;;;;;;8.96;100.00;102459.91;10413844;28;20399;-73
2024/02/01 02:25:17;;;;;;;0.40;0.40;;;;;;;8.80;100.00;102464.09;10413448;28;20132;-72
2024/02/01 02:30:18;;;;;;;3.03;2.78;;;;;;;8.59;100.00;102476.97;10412204;28;20064;-73
2024/02/01 02:35:18;;;;;;;0.82;0.82;;;;;;;8.25;100.00;102485.50;10411817;28;20438;-73
2024/02/01 02:40:19;;;;;;;0.82;0.82;;;;;;;7.93;100.00;102486.63;10412201;28;20030;-73
2024/02/01 02:45:20;;;;;;;1.05;1.05;;;;;;;7.67;100.00;102504.34;10411570;28;20099;-73
2024/02/01 02:50:21;;;;;;;0.50;0.50;;;;;;;7.43;100.00;102516.38;10412990;28;20076;-73
2024/02/01 02:55:21;;;;;;;6.13;2.70;;;;;;;7.37;100.00;102532.22;10427457;28;20140;-74
2024/02/01 03:00:22;;;;;;;0.50;0.50;;;;;;;7.33;100.00;102531.63;10416904;28;20132;-73
2024/02/01 03:05:22;;;;;;;0.85;0.85;;;;;;;7.30;100.00;102541.84;10420866;28;20038;-72
2024/02/01 03:10:22;;;;;;;0.50;0.50;;;;;;;6.95;100.00;102538.53;10420632;28;20212;-73
2024/02/01 03:15:23;;;;;;;0.93;0.93;;;;;;;6.62;100.00;102542.31;10418714;28;20116;-73
2024/02/01 03:20:23;;;;;;;1.00;0.95;;;;;;;6.29;100.00;102557.66;10420437;28;20084;-73
2024/02/01 03:25:31;;;;;;;1.80;1.80;;;;;;;6.00;100.00;102578.91;10420302;28;20056;-72
2024/02/01 03:30:32;;;;;;;4.07;3.72;;;;;;;5.68;100.00;102573.47;10420240;28;20070;-73
2024/02/01 03:35:32;;;;;;;1.10;1.10;;;;;;;5.50;100.00;102573.09;10421435;28;20048;-73
2024/02/01 03:40:38;;;;;;;0.40;0.40;;;;;;;5.38;100.00;102598.25;10422490;28;20440;-73
2024/02/01 03:45:48;;;;;;;1.30;1.30;;;;;;;5.25;100.00;102601.06;10423550;28;20064;-72
2024/02/01 03:50:51;;;;;;;1.40;1.40;;;;;;;5.20;100.00;102615.81;10418822;28;20048;-73
2024/02/01 03:55:52;;;;;;;0.70;0.70;;;;;;;5.16;100.00;102614.34;10420734;28;20115;-72
2024/02/01 04:00:52;;;;;;;4.15;3.95;;;;;;;5.09;100.00;102622.03;10420656;28;20038;-73
2024/02/01 04:05:53;;;;;;;0.60;0.60;;;;;;;5.07;100.00;102632.03;10421962;28;20120;-73
2024/02/01 04:10:54;;;;;;;0.70;0.70;;;;;;;5.00;100.00;102633.47;10417769;28;20083;-73
2024/02/01 04:15:54;;;;;;;0.70;0.70;;;;;;;4.99;100.00;102640.69;10417824;28;20163;-73
2024/02/01 04:20:55;;;;;;;0.90;0.90;;;;;;;4.95;100.00;102657.16;10416267;28;20119;-73
2024/02/01 04:25:56;;;;;;;1.02;1.02;;;;;;;4.90;100.00;102673.59;10417514;28;20091;-72
2024/02/01 04:30:57;;;;;;;2.75;2.38;;;;;;;4.81;100.00;102693.09;10416444;28;20030;-73
2024/02/01 04:35:57;;;;;;;0.70;0.70;;;;;;;4.74;100.00;102695.38;10417374;28;20388;-72
2024/02/01 04:40:58;;;;;;;4.78;3.80;;;;;;;4.73;100.00;102690.16;10418363;28;20125;-72
2024/02/01 04:45:58;;;;;;;0.60;0.60;;;;;;;4.71;100.00;102711.72;10417266;28;20441;-73
2024/02/01 04:50:59;;;;;;;1.33;1.33;;;;;;;4.65;100.00;102704.97;10417123;28;20099;-72
2024/02/01 04:56:00;;;;;;;5.00;4.68;;;;;;;4.56;100.00;102696.75;10414923;28;20140;-73
2024/02/01 05:01:09;;;;;;;0.70;0.70;;;;;;;4.55;100.00;102701.25;10417266;28;20380;-72
2024/02/01 05:06:10;;;;;;;0.60;0.60;;;;;;;4.55;100.00;102716.50;10416454;28;20045;-73
2024/02/01 05:11:11;;;;;;;0.60;0.60;;;;;;;4.56;100.00;102712.84;10415462;28;20071;-73
2024/02/01 05:16:13;;;;;;;0.70;0.70;;;;;;;4.58;100.00;102724.34;10416096;28;20033;-73
2024/02/01 05:21:13;;;;;;;0.70;0.70;;;;;;;4.60;100.00;102725.94;10413568;28;20045;-73
2024/02/01 05:26:14;;;;;;;0.75;0.75;;;;;;;4.59;100.00;102736.78;10416066;28;20108;-73
2024/02/01 05:31:15;;;;;;;0.70;0.70;;;;;;;4.58;100.00;102748.47;10415159;28;20071;-73
2024/02/01 05:36:15;;;;;;;0.90;0.90;;;;;;;4.55;100.00;102762.97;10413913;28;20180;-73
2024/02/01 05:41:16;;;;;;;0.60;0.60;;;;;;;4.57;100.00;102769.09;10448387;28;20053;-73
2024/02/01 05:46:16;;;;;;;0.73;0.73;;;;;;;4.53;100.00;102780.16;10414254;28;20058;-73
2024/02/01 05:51:17;;;;;;;0.75;0.75;;;;;;;4.49;100.00;102787.56;10414646;28;20041;-72
2024/02/01 05:56:17;;;;;;;24.63;5.68;;;;;;;4.45;100.00;102787.91;10413849;28;20053;-73
2024/02/01 06:01:17;;;;;;;0.43;0.43;;;;;;;4.41;100.00;102785.44;10414200;28;20066;-73
2024/02/01 06:06:18;;;;;;;0.70;0.70;;;;;;;4.41;100.00;102781.91;10412839;28;20437;-73
2024/02/01 06:11:18;;;;;;;0.65;0.65;;;;;;;4.36;100.00;102803.69;10413524;28;20128;-74
2024/02/01 06:16:19;;;;;;;0.60;0.60;;;;;;;4.30;100.00;102804.13;10414451;28;20525;-74
2024/02/01 06:21:20;;;;;;;1.27;1.27;;;;;;;4.31;100.00;102821.09;10414023;28;20175;-73
2024/02/01 06:26:25;;;;;;;0.57;0.57;;;;;;;4.37;100.00;102828.69;10414163;28;20048;-73
2024/02/01 06:31:26;;;;;;;0.60;0.60;;;;;;;4.35;100.00;102834.16;10413471;28;20105;-73
2024/02/01 06:36:34;;;;;;;0.65;0.65;;;;;;;4.33;100.00;102830.72;10412614;28;20461;-73
2024/02/01 06:41:49;;;;;;;3.35;1.48;;;;;;;4.40;100.00;102841.88;10413591;28;20038;-74
2024/02/01 06:52:14;;;;;;;0.70;0.70;;;;;;;4.44;100.00;102859.50;10412283;28;20029;-73
2024/02/01 06:57:18;;;;;;;;;;;;;;;4.44;100.00;102870.22;10412455;28;20128;-73
2024/02/01 07:02:34;;;;;;;0.70;0.70;;;;;;;4.50;100.00;102885.88;10412486;28;19909;-73
2024/02/01 07:07:42;;;;;;;0.60;0.60;;;;;;;4.49;100.00;102897.56;10413148;28;20030;-73
2024/02/01 07:12:53;;;;;;;0.60;0.60;;;;;;;4.52;100.00;102886.59;10413454;28;20034;-73
2024/02/01 07:24:27;;;;;;;0.68;0.68;;;;;;;4.62;100.00;102913.66;10407357;28;20056;-73
2024/02/01 08:00:45;;;;;;;0.70;0.70;;;;;;;5.67;100.00;102953.41;10418806;28;20432;-73
2024/02/01 08:11:05;;;;;;;0.63;0.63;;;;;;;6.49;100.00;102977.66;10418129;28;20477;-73
2024/02/01 08:16:06;;;;;;;38.00;8.25;;;;;;;6.90;100.00;102984.31;10419498;28;20052;-73
2024/02/01 08:21:14;;;;;;;19.10;8.68;;;;;;;7.28;100.00;102983.06;10417381;28;20086;-73
2024/02/01 08:26:15;;;;;;;38.92;10.57;;;;;;;7.65;100.00;102979.03;10419715;28;20034;-73
2024/02/01 08:31:17;;;;;;;31.30;8.05;;;;;;;7.97;100.00;102993.53;10418245;28;20045;-73
2024/02/01 08:36:20;;;;;;;28.30;9.05;;;;;;;8.09;100.00;103008.69;10450488;28;20040;-73
2024/02/01 08:41:21;;;;;;;37.25;10.75;;;;;;;8.56;100.00;103015.47;10417785;28;20073;-73
2024/02/01 08:46:22;;;;;;;31.73;8.80;;;;;;;9.09;100.00;103030.66;10417730;28;20457;-74
2024/02/01 08:51:23;;;;;;;33.90;8.05;;;;;;;9.44;100.00;103035.63;10416000;28;20033;-73
2024/02/01 08:56:36;;;;;;;24.55;8.60;;;;;;;9.64;100.00;103041.97;10416838;28;20228;-73
2024/02/01 09:01:36;;;;;;;20.70;8.32;;;;;;;9.46;100.00;103049.88;10416931;28;20044;-73
2024/02/01 09:06:37;;;;;;;30.17;8.07;;;;;;;9.45;100.00;103047.34;10417169;28;20048;-73
2024/02/01 09:11:37;;;;;;;28.17;7.70;;;;;;;9.61;100.00;103055.78;10417086;28;20084;-73
2024/02/01 09:16:37;;;;;;;19.15;7.28;;;;;;;10.33;100.00;103056.44;10415996;28;20041;-74
2024/02/01 09:21:39;;;;;;;33.67;6.85;;;;;;;10.14;100.00;103076.22;10416769;28;20029;-73
2024/02/01 09:26:41;;;;;;;34.85;8.50;;;;;;;10.08;100.00;103087.59;10416705;28;20377;-74
2024/02/01 09:31:42;;;;;;;21.48;8.07;;;;;;;10.30;100.00;103091.94;10414688;28;20548;-74
2024/02/01 09:36:43;;;;;;;21.83;7.80;;;;;;;10.84;100.00;103096.75;10414808;28;20045;-74
2024/02/01 09:41:43;;;;;;;23.30;7.82;;;;;;;11.00;100.00;103087.16;10413914;28;20041;-73
2024/02/01 09:46:44;;;;;;;26.67;6.78;;;;;;;11.31;100.00;103104.91;10414934;28;20045;-74
2024/02/01 09:51:46;;;;;;;20.58;8.38;;;;;;;11.39;100.00;103112.28;10414579;28;20416;-73
2024/02/01 09:56:47;;;;;;;19.40;7.35;;;;;;;11.56;100.00;103110.66;10415300;28;20045;-74
2024/02/01 10:01:49;;;;;;;20.50;7.32;;;;;;;11.66;100.00;103114.19;10397195;28;20086;-73
2024/02/01 10:06:49;;;;;;;10.65;5.80;;;;;;;12.01;100.00;103113.44;10396837;28;20048;-73
2024/02/01 10:11:50;;;;;;;21.08;6.95;;;;;;;11.84;100.00;103128.69;10413554;28;20393;-73
2024/02/01 10:16:51;;;;;;;21.52;6.78;;;;;;;12.18;100.00;103132.63;10412966;28;20083;-73
2024/02/01 10:21:56;;;;;;;17.95;4.80;;;;;;;12.41;100.00;103135.72;10414227;28;20036;-73
2024/02/01 10:27:04;;;;;;;15.27;6.15;;;;;;;12.73;100.00;103132.44;10413888;28;20033;-73
2024/02/01 10:32:05;;;;;;;19.40;4.90;;;;;;;12.55;100.00;103144.22;10413917;28;20029;-73
2024/02/01 10:37:05;;;;;;;23.80;7.07;;;;;;;12.99;100.00;103146.13;10412847;28;20033;-73
2024/02/01 10:42:08;;;;;;;16.60;5.45;;;;;;;13.11;100.00;103144.81;10395657;28;20109;-73
2024/02/01 10:47:13;;;;;;;15.57;6.72;;;;;;;13.19;100.00;103133.16;10413035;28;20026;-73
2024/02/01 10:52:14;;;;;;;18.40;6.28;;;;;;;13.24;100.00;103142.59;10413530;28;20347;-73
2024/02/01 10:57:14;;;;;;;12.00;4.70;;;;;;;12.82;100.00;103144.25;10413482;28;20098;-73
2024/02/01 11:02:15;;;;;;;9.98;4.50;;;;;;;13.45;100.00;103135.88;10412686;28;20045;-73
2024/02/01 11:07:28;;;;;;;17.40;5.40;;;;;;;13.41;100.00;103156.28;10412249;28;20112;-73
2024/02/01 11:12:28;;;;;;;15.00;4.30;;;;;;;13.16;100.00;103138.91;10412529;28;20068;-73
2024/02/01 11:17:30;;;;;;;15.05;5.05;;;;;;;13.21;100.00;103153.75;10412548;28;20115;-72
2024/02/01 11:22:33;;;;;;;18.33;4.38;;;;;;;13.52;100.00;103156.00;10420397;28;20117;-73
2024/02/01 11:27:36;;;;;;;6.95;3.72;;;;;;;13.41;100.00;103146.25;10420283;28;20121;-72
2024/02/01 11:32:37;;;;;;;19.23;5.70;;;;;;;13.59;100.00;103162.53;10419926;28;20065;-73
2024/02/01 11:37:37;;;;;;;7.00;4.88;;;;;;;13.54;100.00;103144.97;10419955;28;20461;-73
2024/02/01 11:42:38;;;;;;;20.20;5.57;;;;;;;13.76;100.00;103133.50;10421344;28;20099;-73
2024/02/01 11:47:39;;;;;;;20.50;6.10;;;;;;;13.63;100.00;103166.63;10418381;28;20111;-73
2024/02/01 11:52:55;;;;;;;9.40;4.00;;;;;;;13.62;100.00;103154.00;10418197;28;20122;-72
2024/02/01 11:57:57;;;;;;;24.60;6.25;;;;;;;13.29;100.00;103157.56;10420631;28;20044;-73
2024/02/01 12:02:58;;;;;;;16.58;4.88;;;;;;;13.01;100.00;103171.28;10402602;28;20037;-72
2024/02/01 12:08:03;;;;;;;6.00;4.03;;;;;;;12.82;100.00;103166.00;10450862;28;20451;-73
2024/02/01 12:13:04;;;;;;;10.38;5.03;;;;;;;13.14;100.00;103182.59;10419013;28;20061;-73
2024/02/01 12:18:08;;;;;;;12.82;4.75;;;;;;;13.30;100.00;103186.47;10418241;28;20120;-72
2024/02/01 12:23:11;;;;;;;13.55;6.18;;;;;;;13.13;100.00;103189.03;10419245;28;20036;-73
2024/02/01 12:28:12;;;;;;;14.05;5.05;;;;;;;12.60;100.00;103205.41;10417402;28;20476;-73
2024/02/01 12:33:12;;;;;;;23.48;5.40;;;;;;;12.47;100.00;103195.75;10417177;28;20068;-73
2024/02/01 12:38:14;;;;;;;20.45;5.85;;;;;;;12.84;100.00;103183.03;10418983;28;20034;-74
2024/02/01 12:43:15;;;;;;;16.45;6.07;;;;;;;12.82;100.00;103168.72;10418116;28;20382;-73
2024/02/01 12:48:16;;;;;;;15.35;4.38;;;;;;;12.83;100.00;103170.44;10418245;28;20033;-72
2024/02/01 12:53:16;;;;;;;27.40;6.00;;;;;;;12.87;100.00;103163.69;10418415;28;20053;-72
2024/02/01 12:58:18;;;;;;;11.50;4.35;;;;;;;12.84;100.00;103164.84;10415463;28;20452;-73
2024/02/01 13:03:18;;;;;;;15.90;5.97;;;;;;;12.71;100.00;103167.13;10415004;28;20072;-72
2024/02/01 13:08:18;;;;;;;12.48;4.30;;;;;;;12.74;100.00;103154.06;10416677;28;20038;-72
2024/02/01 13:13:19;;;;;;;10.63;4.63;;;;;;;12.45;100.00;103146.16;10415232;28;20052;-72
2024/02/01 13:18:19;;;;;;;14.25;4.80;;;;;;;12.27;100.00;103148.84;10415685;28;20041;-73
2024/02/01 13:23:20;;;;;;;20.70;6.65;;;;;;;12.12;100.00;103158.53;10417334;28;20116;-73
2024/02/01 13:28:20;;;;;;;6.63;3.25;;;;;;;11.89;100.00;103159.97;10417115;28;20428;-72
2024/02/01 13:33:21;;;;;;;9.27;5.25;;;;;;;11.51;100.00;103159.94;10415525;28;20033;-73
2024/02/01 13:38:21;;;;;;;11.32;4.72;;;;;;;11.16;100.00;103166.03;10415267;28;20037;-73
2024/02/01 13:43:22;;;;;;;11.52;4.55;;;;;;;10.59;100.00;103160.53;10412564;28;20053;-72
2024/02/01 13:48:24;;;;;;;19.70;5.93;;;;;;;10.16;100.00;103160.88;10415521;28;20038;-72
2024/02/01 13:53:25;;;;;;;13.57;4.07;;;;;;;9.91;100.00;103165.78;10415138;28;20060;-72
2024/02/01 13:58:25;;;;;;;11.90;4.15;;;;;;;9.76;100.00;103154.50;10414446;28;20501;-72
2024/02/01 14:03:25;;;;;;;23.25;5.97;;;;;;;9.81;100.00;103161.34;10413511;28;20152;-74
2024/02/01 14:08:26;;;;;;;18.08;3.95;;;;;;;9.96;100.00;103176.22;10413419;28;20129;-72
2024/02/01 14:13:26;;;;;;;18.15;5.82;;;;;;;9.78;100.00;103168.72;10415007;28;20088;-72
2024/02/01 14:18:28;;;;;;;5.47;4.07;;;;;;;9.58;100.00;103158.84;10414394;28;20037;-72
2024/02/01 14:23:30;;;;;;;14.45;4.53;;;;;;;9.38;100.00;103163.31;10396692;28;20424;-72
2024/02/01 14:28:30;;;;;;;25.70;5.13;;;;;;;9.31;100.00;103159.41;10413005;28;20044;-72
2024/02/01 14:33:31;;;;;;;8.82;6.47;;;;;;;9.30;100.00;103174.78;10413653;28;20125;-72
2024/02/01 14:38:32;;;;;;;15.93;4.25;;;;;;;9.27;100.00;103182.28;10413153;28;20468;-72
2024/02/01 14:43:32;;;;;;;9.15;5.25;;;;;;;9.22;100.00;103198.03;10413989;28;20103;-73
2024/02/01 14:48:33;;;;;;;28.50;6.20;;;;;;;9.23;100.00;103192.53;10413008;28;20107;-72
2024/02/01 14:53:33;;;;;;;16.13;4.57;;;;;;;9.14;100.00;103174.38;10416082;28;20053;-72
2024/02/01 14:58:34;;;;;;;12.73;5.80;;;;;;;8.96;100.00;103195.72;10426604;28;20048;-72
2024/02/01 15:03:34;;;;;;;17.92;3.40;;;;;;;8.83;100.00;103214.81;10459611;28;20044;-72
2024/02/01 15:08:34;;;;;;;23.35;6.00;;;;;;;8.81;100.00;103216.81;10427005;28;20429;-72
2024/02/01 15:13:35;;;;;;;19.05;4.07;;;;;;;8.82;100.00;103225.78;10425284;28;20033;-73
2024/02/01 15:18:36;;;;;;;23.55;6.20;;;;;;;8.50;100.00;103215.81;10427889;28;20044;-72
2024/02/01 15:23:37;;;;;;;33.20;9.43;;;;;;;8.14;100.00;103206.19;10426096;28;20116;-72
2024/02/01 15:28:39;;;;;;;13.30;5.05;;;;;;;7.88;100.00;103208.25;10426468;28;20346;-72
2024/02/01 15:33:40;;;;;;;13.23;4.75;;;;;;;7.80;100.00;103213.44;10424000;28;20030;-72
2024/02/01 15:38:46;;;;;;;21.52;4.97;;;;;;;7.81;100.00;103209.75;10425119;28;20341;-72
2024/02/01 15:43:46;;;;;;;9.93;4.97;;;;;;;7.75;100.00;103216.47;10426670;28;20033;-72
2024/02/01 15:48:47;;;;;;;23.92;6.05;;;;;;;7.74;100.00;103216.63;10425806;28;20033;-72
2024/02/01 15:53:48;;;;;;;14.57;4.88;;;;;;;7.74;100.00;103216.63;10424147;28;20545;-72
2024/02/01 15:58:48;;;;;;;20.65;5.13;;;;;;;7.64;100.00;103208.41;10426129;28;20076;-72
2024/02/01 16:03:49;;;;;;;16.10;5.57;;;;;;;7.46;100.00;103214.25;10424378;28;20038;-72
2024/02/01 16:08:51;;;;;;;15.18;5.90;;;;;;;7.34;100.00;103215.22;10418319;28;20068;-72
2024/02/01 16:13:57;;;;;;;14.98;5.97;;;;;;;7.19;100.00;103233.44;10416621;28;20029;-72
2024/02/01 16:18:58;;;;;;;19.38;6.35;;;;;;;7.16;100.00;103232.81;10417250;28;20553;-72
2024/02/01 16:23:59;;;;;;;15.77;6.80;;;;;;;7.09;100.00;103245.91;10400833;28;20088;-72
2024/02/01 16:29:00;;;;;;;20.58;5.35;;;;;;;6.97;100.00;103236.06;10417554;28;20033;-72
2024/02/01 16:34:29;;;;;;;16.33;6.93;;;;;;;6.81;100.00;103232.81;10421290;28;20438;-72
2024/02/01 16:39:33;;;;;;;24.05;7.88;;;;;;;6.62;100.00;103242.25;10408366;28;20357;-72
2024/02/01 16:44:46;;;;;;;20.55;5.70;;;;;;;6.45;100.00;103229.19;10416913;28;20230;-72
2024/02/01 16:49:46;;;;;;;16.70;6.68;;;;;;;6.32;100.00;103240.00;10416750;28;20188;-72
2024/02/01 16:54:47;;;;;;;21.95;7.32;;;;;;;6.18;100.00;103232.91;10416921;28;20045;-72
2024/02/01 16:59:49;;;;;;;46.47;10.00;;;;;;;6.11;100.00;103238.88;10417258;28;20512;-72
2024/02/01 17:04:49;;;;;;;28.30;7.68;;;;;;;6.12;100.00;103237.88;10401113;28;20044;-72
2024/02/01 17:09:52;;;;;;;19.85;6.70;;;;;;;6.07;100.00;103226.63;10419645;28;20041;-72
2024/02/01 17:14:55;;;;;;;19.48;7.82;;;;;;;6.01;100.00;103211.78;10419394;28;20037;-72
2024/02/01 17:19:55;;;;;;;30.85;7.05;;;;;;;5.92;100.00;103207.88;10419402;28;20389;-72
2024/02/01 17:24:56;;;;;;;25.92;8.45;;;;;;;5.86;100.00;103227.13;10417607;28;20033;-72
2024/02/01 17:29:56;;;;;;;39.75;12.45;;;;;;;5.83;100.00;103230.91;10399436;28;20108;-72
2024/02/01 17:34:57;;;;;;;24.70;7.68;;;;;;;5.78;100.00;103234.91;10415606;28;20083;-72
2024/02/01 17:39:59;;;;;;;40.15;8.57;;;;;;;5.74;100.00;103228.91;10415368;28;20104;-72
2024/02/01 17:45:20;;;;;;;50.88;10.25;;;;;;;5.64;100.00;103241.25;10413862;28;20089;-72
2024/02/01 17:50:31;;;;;;;15.10;8.40;;;;;;;5.56;100.00;103262.44;10384499;28;20516;-71
2024/02/01 17:55:47;;;;;;;14.05;8.30;;;;;;;5.53;100.00;103241.16;10413760;28;20053;-72
2024/02/01 18:00:47;;;;;;;26.00;7.80;;;;;;;5.48;100.00;103236.06;10414153;28;20069;-72
2024/02/01 18:05:48;;;;;;;21.55;7.97;;;;;;;5.44;100.00;103250.69;10415593;28;20057;-72
2024/02/01 18:10:49;;;;;;;37.00;10.02;;;;;;;5.37;100.00;103254.78;10413987;28;20068;-72
2024/02/01 18:16:01;;;;;;;23.10;7.45;;;;;;;5.32;100.00;103252.41;10414772;28;20120;-72
2024/02/01 18:21:05;;;;;;;25.83;8.50;;;;;;;5.28;100.00;103252.72;10398440;28;20120;-72
2024/02/01 18:26:06;;;;;;;20.90;8.30;;;;;;;5.29;100.00;103238.31;10414721;28;20069;-71
2024/02/01 18:31:27;;;;;;;25.33;8.43;;;;;;;5.23;100.00;103233.34;10413486;28;20119;-71
2024/02/01 18:36:29;;;;;;;27.95;9.95;;;;;;;5.17;100.00;103245.41;10415107;28;20049;-72
2024/02/01 18:41:31;;;;;;;28.45;10.52;;;;;;;5.10;100.00;103242.25;10413782;28;20040;-72
2024/02/01 18:46:43;;;;;;;31.20;7.70;;;;;;;5.12;100.00;103243.00;10414311;28;20061;-72
2024/02/01 18:51:53;;;;;;;20.65;8.65;;;;;;;5.07;100.00;103236.22;10414276;28;20069;-72
2024/02/01 18:56:58;;;;;;;28.75;7.95;;;;;;;4.98;100.00;103248.47;10416453;28;20049;-71
2024/02/01 19:01:58;;;;;;;21.13;9.52;;;;;;;4.95;100.00;103226.34;10415252;28;20181;-72
2024/02/01 19:06:59;;;;;;;24.02;7.15;;;;;;;4.93;100.00;103244.38;10413073;28;20477;-71
2024/02/01 19:12:03;;;;;;;32.53;10.77;;;;;;;4.86;100.00;103247.47;10413589;28;20422;-72
2024/02/01 19:17:20;;;;;;;34.15;8.25;;;;;;;4.80;100.00;103263.13;10413596;28;20025;-71
2024/02/01 19:22:37;;;;;;;32.67;9.68;;;;;;;4.76;100.00;103258.94;10413723;28;20481;-71
2024/02/01 19:27:38;;;;;;;20.38;6.38;;;;;;;4.78;100.00;103262.34;10413551;28;20038;-72
2024/02/01 19:32:46;;;;;;;17.17;8.32;;;;;;;4.80;100.00;103260.44;10412080;28;20030;-71
2024/02/01 19:37:51;;;;;;;18.45;8.70;;;;;;;4.73;100.00;103276.09;10395589;28;20029;-72
2024/02/01 19:42:51;;;;;;;26.20;8.25;;;;;;;4.75;100.00;103278.66;10418892;28;20037;-72
2024/02/01 19:47:52;;;;;;;33.80;7.85;;;;;;;4.73;100.00;103268.03;10421962;28;20108;-72
2024/02/01 19:52:52;;;;;;;17.92;6.57;;;;;;;4.95;100.00;103254.06;10420947;28;20096;-73
2024/02/01 19:57:55;;;;;;;28.45;7.78;;;;;;;5.16;100.00;103251.72;10419059;28;20045;-74
2024/02/01 20:02:56;;;;;;;32.90;9.32;;;;;;;5.13;100.00;103268.03;10418891;28;20039;-72
2024/02/01 20:07:56;;;;;;;35.85;9.77;;;;;;;5.03;100.00;103253.53;10435127;28;20120;-71
2024/02/01 20:12:57;;;;;;;28.70;6.85;;;;;;;5.01;100.00;103250.06;10418769;28;20330;-72
2024/02/01 20:17:58;;;;;;;24.73;7.20;;;;;;;5.10;100.00;103254.81;10418448;28;20032;-72
2024/02/01 20:22:58;;;;;;;30.08;8.02;;;;;;;5.27;100.00;103254.56;10418853;28;20061;-71
2024/02/01 20:27:59;;;;;;;27.25;7.75;;;;;;;5.38;100.00;103236.81;10435608;28;20061;-72
2024/02/01 20:33:01;;;;;;;26.00;8.82;;;;;;;5.38;100.00;103209.97;10417874;28;20354;-72
2024/02/01 20:38:10;;;;;;;40.25;8.60;;;;;;;5.29;100.00;103216.81;10420439;28;20132;-72
2024/02/01 20:43:18;;;;;;;12.63;6.10;;;;;;;5.36;100.00;103208.25;10417482;28;20033;-72
2024/02/01 20:48:44;;;;;;;23.20;9.45;;;;;;;5.51;100.00;103208.97;10417652;28;20457;-72
2024/02/01 20:53:52;;;;;;;18.45;8.23;;;;;;;5.64;100.00;103208.13;10419839;28;20045;-72
2024/02/01 20:58:59;;;;;;;19.73;6.63;;;;;;;5.71;100.00;103195.97;10405213;28;20033;-72
2024/02/01 21:03:59;;;;;;;14.63;6.22;;;;;;;5.74;100.00;103175.13;10417775;28;20033;-72
2024/02/01 21:09:00;;;;;;;26.27;8.82;;;;;;;5.78;100.00;103184.69;10418420;28;20124;-72
2024/02/01 21:14:00;;;;;;;27.75;9.52;;;;;;;5.78;100.00;103184.69;10415791;28;20036;-72
2024/02/01 21:19:00;;;;;;;20.15;9.27;;;;;;;5.76;100.00;103191.97;10416364;28;20037;-72
2024/02/01 21:24:02;;;;;;;26.70;9.50;;;;;;;5.78;100.00;103199.97;10416064;28;20080;-71
2024/02/01 21:29:13;;;;;;;20.83;7.68;;;;;;;5.79;100.00;103193.59;10415955;28;20052;-72
2024/02/01 21:34:15;;;;;;;17.85;6.47;;;;;;;5.78;100.00;103182.00;10415922;28;20136;-72
2024/02/01 21:39:32;;;;;;;23.75;8.15;;;;;;;5.74;100.00;103164.38;10418100;28;20033;-72
2024/02/01 21:44:33;;;;;;;16.48;8.00;;;;;;;5.76;100.00;103173.16;10416699;28;20108;-72
2024/02/01 21:49:33;;;;;;;32.53;7.43;;;;;;;5.76;100.00;103175.84;10417751;28;20179;-72
2024/02/01 21:54:34;;;;;;;21.20;9.38;;;;;;;5.72;100.00;103181.56;10415542;28;20093;-72
2024/02/01 21:59:35;;;;;;;17.25;5.80;;;;;;;5.72;100.00;103176.19;10420728;28;20046;-72
2024/02/01 22:04:35;;;;;;;14.32;6.57;;;;;;;5.71;100.00;103166.38;10414735;28;20072;-72
2024/02/01 22:09:36;;;;;;;15.02;6.43;;;;;;;5.73;100.00;103168.00;10415815;28;20084;-72
2024/02/01 22:14:36;;;;;;;27.48;7.45;;;;;;;5.81;100.00;103157.56;10414788;28;20493;-71
2024/02/01 22:19:37;;;;;;;14.73;5.82;;;;;;;5.82;100.00;103143.16;10413332;28;20061;-72
2024/02/01 22:24:37;;;;;;;9.18;4.78;;;;;;;5.78;100.00;103144.34;10416702;28;20092;-72
2024/02/01 22:29:41;;;;;;;15.55;5.68;;;;;;;5.82;100.00;103147.66;10416225;28;20489;-72
2024/02/01 22:34:42;;;;;;;11.70;6.05;;;;;;;5.79;100.00;103145.19;10413676;28;20046;-72
2024/02/01 22:39:42;;;;;;;19.00;6.60;;;;;;;5.85;100.00;103135.84;10414853;28;20091;-72
2024/02/01 22:44:43;;;;;;;12.38;5.70;;;;;;;5.80;100.00;103134.31;10413556;28;20491;-72
2024/02/01 22:49:43;;;;;;;18.95;7.25;;;;;;;5.92;100.00;103139.78;10414327;28;20038;-72
2024/02/01 22:54:44;;;;;;;17.42;5.07;;;;;;;5.87;100.00;103136.56;10413941;28;20064;-71
2024/02/01 22:59:44;;;;;;;23.02;6.13;;;;;;;5.85;100.00;103143.91;10414313;28;20088;-72
2024/02/01 23:04:45;;;;;;;16.10;6.18;;;;;;;5.84;100.00;103121.53;10414959;28;20038;-71
2024/02/01 23:09:45;;;;;;;22.90;6.22;;;;;;;5.90;100.00;103121.06;10414529;28;20041;-72
2024/02/01 23:14:45;;;;;;;19.15;7.30;;;;;;;5.83;100.00;103101.84;10415529;28;20026;-71
2024/02/01 23:19:46;;;;;;;18.65;5.68;;;;;;;5.87;100.00;103107.88;10421623;28;20081;-72
2024/02/01 23:24:46;;;;;;;12.15;6.60;;;;;;;5.90;100.00;103094.19;10421008;28;20105;-72
2024/02/01 23:29:47;;;;;;;17.42;7.72;;;;;;;5.93;100.00;103098.50;10422411;28;20119;-72
2024/02/01 23:34:47;;;;;;;18.42;6.43;;;;;;;5.91;100.00;103087.00;10421554;28;20037;-72
2024/02/01 23:39:47;;;;;;;24.75;7.25;;;;;;;5.94;100.00;103073.34;10421556;28;20115;-71
2024/02/01 23:44:48;;;;;;;15.35;5.88;;;;;;;6.01;100.00;103070.09;10421958;28;20065;-72